sensor_id;sensor_type;location;lat;lon;timestamp;temperature;humidity
30893;DHT22;17595;50.884;4.346;2022-09-09T00:04:30;18.30;99.90
30893;DHT22;17595;50.884;4.346;2022-09-09T00:15:13;18.40;99.90
30893;DHT22;17595;50.884;4.346;2022-09-09T00:20:45;18.40;99.90
30893;DHT22;17595;50.884;4.346;2022-09-09T00:23:17;18.40;99.90
30893;DHT22;17595;50.884;4.346;2022-09-09T00:26:06;18.40;99.90
30893;DHT22;17595;50.884;4.346;2022-09-09T00:28:40;18.40;99.90
30893;DHT22;17595;50.884;4.346;2022-09-09T00:31:18;18.30;99.90
30893;DHT22;17595;50.884;4.346;2022-09-09T00:33:46;18.20;99.90
30893;DHT22;17595;50.884;4.346;2022-09-09T00:36:15;18.20;99.90
30893;DHT22;17595;50.884;4.346;2022-09-09T00:38:49;18.20;99.90
30893;DHT22;17595;50.884;4.346;2022-09-09T00:41:43;18.20;99.90
30893;DHT22;17595;50.884;4.346;2022-09-09T00:47:00;18.40;99.90
30893;DHT22;17595;50.884;4.346;2022-09-09T00:54:55;18.50;99.90
30893;DHT22;17595;50.884;4.346;2022-09-09T00:57:30;18.50;99.90
30893;DHT22;17595;50.884;4.346;2022-09-09T01:02:39;18.40;99.90
30893;DHT22;17595;50.884;4.346;2022-09-09T01:08:01;18.40;99.90
30893;DHT22;17595;50.884;4.346;2022-09-09T01:13:15;18.40;99.90
30893;DHT22;17595;50.884;4.346;2022-09-09T01:15:44;18.40;99.90
30893;DHT22;17595;50.884;4.346;2022-09-09T01:18:14;18.30;99.90
30893;DHT22;17595;50.884;4.346;2022-09-09T01:23:41;18.30;99.90
30893;DHT22;17595;50.884;4.346;2022-09-09T01:28:44;18.30;99.90
30893;DHT22;17595;50.884;4.346;2022-09-09T01:31:14;18.30;99.90
30893;DHT22;17595;50.884;4.346;2022-09-09T01:33:40;18.30;99.90
30893;DHT22;17595;50.884;4.346;2022-09-09T01:36:13;18.30;99.90
30893;DHT22;17595;50.884;4.346;2022-09-09T01:38:41;18.30;99.90
30893;DHT22;17595;50.884;4.346;2022-09-09T01:41:07;18.30;99.90
30893;DHT22;17595;50.884;4.346;2022-09-09T01:43:32;18.40;99.90
30893;DHT22;17595;50.884;4.346;2022-09-09T01:46:01;18.40;99.90
30893;DHT22;17595;50.884;4.346;2022-09-09T01:48:27;18.30;99.90
30893;DHT22;17595;50.884;4.346;2022-09-09T01:50:53;18.30;99.90
30893;DHT22;17595;50.884;4.346;2022-09-09T01:53:20;18.30;99.90
30893;DHT22;17595;50.884;4.346;2022-09-09T01:58:47;18.20;99.90
30893;DHT22;17595;50.884;4.346;2022-09-09T02:01:51;18.20;99.90
30893;DHT22;17595;50.884;4.346;2022-09-09T02:06:55;18.20;99.90
30893;DHT22;17595;50.884;4.346;2022-09-09T02:09:24;18.20;99.90
30893;DHT22;17595;50.884;4.346;2022-09-09T02:12:01;18.20;99.90
30893;DHT22;17595;50.884;4.346;2022-09-09T02:14:35;18.20;99.90
30893;DHT22;17595;50.884;4.346;2022-09-09T02:17:11;18.20;99.90
30893;DHT22;17595;50.884;4.346;2022-09-09T02:19:49;18.20;99.90
30893;DHT22;17595;50.884;4.346;2022-09-09T02:22:18;18.20;99.90
30893;DHT22;17595;50.884;4.346;2022-09-09T02:24:45;18.20;99.90
30893;DHT22;17595;50.884;4.346;2022-09-09T02:27:12;18.20;99.90
30893;DHT22;17595;50.884;4.346;2022-09-09T02:29:41;18.10;99.90
30893;DHT22;17595;50.884;4.346;2022-09-09T02:32:12;18.20;99.90
30893;DHT22;17595;50.884;4.346;2022-09-09T02:34:48;18.10;99.90
30893;DHT22;17595;50.884;4.346;2022-09-09T02:37:21;18.10;99.90
30893;DHT22;17595;50.884;4.346;2022-09-09T02:39:47;18.10;99.90
30893;DHT22;17595;50.884;4.346;2022-09-09T02:42:13;18.20;99.90
30893;DHT22;17595;50.884;4.346;2022-09-09T02:44:41;18.20;99.90
30893;DHT22;17595;50.884;4.346;2022-09-09T02:47:19;18.30;99.90
30893;DHT22;17595;50.884;4.346;2022-09-09T02:55:40;18.20;99.90
30893;DHT22;17595;50.884;4.346;2022-09-09T02:58:10;18.20;99.90
30893;DHT22;17595;50.884;4.346;2022-09-09T03:00:37;18.20;99.90
30893;DHT22;17595;50.884;4.346;2022-09-09T03:03:07;18.20;99.90
30893;DHT22;17595;50.884;4.346;2022-09-09T03:05:34;18.20;99.90
30893;DHT22;17595;50.884;4.346;2022-09-09T03:08:01;18.20;99.90
30893;DHT22;17595;50.884;4.346;2022-09-09T03:10:27;18.10;99.90
30893;DHT22;17595;50.884;4.346;2022-09-09T03:12:53;18.10;99.90
30893;DHT22;17595;50.884;4.346;2022-09-09T03:15:18;18.10;99.90
30893;DHT22;17595;50.884;4.346;2022-09-09T03:17:44;18.10;99.90
30893;DHT22;17595;50.884;4.346;2022-09-09T03:20:10;18.00;99.90
30893;DHT22;17595;50.884;4.346;2022-09-09T03:22:35;17.80;99.90
30893;DHT22;17595;50.884;4.346;2022-09-09T03:25:01;17.70;99.90
30893;DHT22;17595;50.884;4.346;2022-09-09T03:27:28;17.70;99.90
30893;DHT22;17595;50.884;4.346;2022-09-09T03:29:54;17.70;99.90
30893;DHT22;17595;50.884;4.346;2022-09-09T03:32:20;17.80;99.90
30893;DHT22;17595;50.884;4.346;2022-09-09T03:34:48;17.80;99.90
30893;DHT22;17595;50.884;4.346;2022-09-09T03:37:16;17.80;99.90
30893;DHT22;17595;50.884;4.346;2022-09-09T03:39:42;17.90;99.90
30893;DHT22;17595;50.884;4.346;2022-09-09T03:42:08;18.00;99.90
30893;DHT22;17595;50.884;4.346;2022-09-09T03:44:34;18.00;99.90
30893;DHT22;17595;50.884;4.346;2022-09-09T03:46:59;18.10;99.90
30893;DHT22;17595;50.884;4.346;2022-09-09T03:49:27;18.20;99.90
30893;DHT22;17595;50.884;4.346;2022-09-09T03:51:56;18.10;99.90
30893;DHT22;17595;50.884;4.346;2022-09-09T03:54:23;18.20;99.90
30893;DHT22;17595;50.884;4.346;2022-09-09T03:56:49;18.30;99.90
30893;DHT22;17595;50.884;4.346;2022-09-09T03:59:14;18.30;99.90
30893;DHT22;17595;50.884;4.346;2022-09-09T04:01:40;18.30;99.90
30893;DHT22;17595;50.884;4.346;2022-09-09T04:04:05;18.30;99.90
30893;DHT22;17595;50.884;4.346;2022-09-09T04:06:31;18.30;99.90
30893;DHT22;17595;50.884;4.346;2022-09-09T04:08:57;18.30;99.90
30893;DHT22;17595;50.884;4.346;2022-09-09T04:11:22;18.50;99.90
30893;DHT22;17595;50.884;4.346;2022-09-09T04:13:48;18.40;99.90
30893;DHT22;17595;50.884;4.346;2022-09-09T04:16:14;18.40;99.90
30893;DHT22;17595;50.884;4.346;2022-09-09T04:18:40;18.40;99.90
30893;DHT22;17595;50.884;4.346;2022-09-09T04:21:06;18.40;99.90
30893;DHT22;17595;50.884;4.346;2022-09-09T04:23:33;18.40;99.90
30893;DHT22;17595;50.884;4.346;2022-09-09T04:26:01;18.40;99.90
30893;DHT22;17595;50.884;4.346;2022-09-09T04:28:29;18.40;99.90
30893;DHT22;17595;50.884;4.346;2022-09-09T04:30:56;18.40;99.90
30893;DHT22;17595;50.884;4.346;2022-09-09T04:33:23;18.40;99.90
30893;DHT22;17595;50.884;4.346;2022-09-09T04:35:52;18.30;99.90
30893;DHT22;17595;50.884;4.346;2022-09-09T04:38:19;18.20;99.90
30893;DHT22;17595;50.884;4.346;2022-09-09T04:40:50;18.30;99.90
30893;DHT22;17595;50.884;4.346;2022-09-09T04:43:17;18.30;99.90
30893;DHT22;17595;50.884;4.346;2022-09-09T04:45:43;18.40;99.90
30893;DHT22;17595;50.884;4.346;2022-09-09T04:48:09;18.40;99.90
30893;DHT22;17595;50.884;4.346;2022-09-09T04:50:35;18.20;99.90
30893;DHT22;17595;50.884;4.346;2022-09-09T04:53:04;18.10;99.90
30893;DHT22;17595;50.884;4.346;2022-09-09T04:55:31;18.10;99.90
30893;DHT22;17595;50.884;4.346;2022-09-09T04:57:56;18.10;99.90
30893;DHT22;17595;50.884;4.346;2022-09-09T05:00:26;18.10;99.90
30893;DHT22;17595;50.884;4.346;2022-09-09T05:02:51;18.10;99.90
30893;DHT22;17595;50.884;4.346;2022-09-09T05:05:18;18.10;99.90
30893;DHT22;17595;50.884;4.346;2022-09-09T05:07:45;18.10;99.90
30893;DHT22;17595;50.884;4.346;2022-09-09T05:10:11;18.10;99.90
30893;DHT22;17595;50.884;4.346;2022-09-09T05:12:36;18.10;99.90
30893;DHT22;17595;50.884;4.346;2022-09-09T05:15:02;18.10;99.90
30893;DHT22;17595;50.884;4.346;2022-09-09T05:17:27;18.30;99.90
30893;DHT22;17595;50.884;4.346;2022-09-09T05:19:54;18.20;99.90
30893;DHT22;17595;50.884;4.346;2022-09-09T05:22:20;18.30;99.90
30893;DHT22;17595;50.884;4.346;2022-09-09T05:24:46;18.30;99.90
30893;DHT22;17595;50.884;4.346;2022-09-09T05:27:11;18.30;99.90
30893;DHT22;17595;50.884;4.346;2022-09-09T05:29:38;18.30;99.90
30893;DHT22;17595;50.884;4.346;2022-09-09T05:32:04;18.40;99.90
30893;DHT22;17595;50.884;4.346;2022-09-09T05:34:29;18.50;99.90
30893;DHT22;17595;50.884;4.346;2022-09-09T05:36:55;18.50;99.90
30893;DHT22;17595;50.884;4.346;2022-09-09T05:39:20;18.60;99.90
30893;DHT22;17595;50.884;4.346;2022-09-09T05:41:46;18.70;99.90
30893;DHT22;17595;50.884;4.346;2022-09-09T05:44:12;18.60;99.90
30893;DHT22;17595;50.884;4.346;2022-09-09T05:46:38;18.50;99.90
30893;DHT22;17595;50.884;4.346;2022-09-09T05:49:04;18.40;99.90
30893;DHT22;17595;50.884;4.346;2022-09-09T05:51:30;18.30;99.90
30893;DHT22;17595;50.884;4.346;2022-09-09T05:53:56;18.30;99.90
30893;DHT22;17595;50.884;4.346;2022-09-09T05:56:27;18.30;99.90
30893;DHT22;17595;50.884;4.346;2022-09-09T05:58:54;18.30;99.90
30893;DHT22;17595;50.884;4.346;2022-09-09T06:01:22;18.40;99.90
30893;DHT22;17595;50.884;4.346;2022-09-09T06:03:49;18.50;99.90
30893;DHT22;17595;50.884;4.346;2022-09-09T06:06:27;18.50;99.90
30893;DHT22;17595;50.884;4.346;2022-09-09T06:08:54;18.50;99.90
30893;DHT22;17595;50.884;4.346;2022-09-09T06:11:28;18.60;99.90
30893;DHT22;17595;50.884;4.346;2022-09-09T06:13:56;18.60;99.90
30893;DHT22;17595;50.884;4.346;2022-09-09T06:16:24;18.60;99.90
30893;DHT22;17595;50.884;4.346;2022-09-09T06:18:51;18.70;99.90
30893;DHT22;17595;50.884;4.346;2022-09-09T06:21:19;18.90;99.90
30893;DHT22;17595;50.884;4.346;2022-09-09T06:23:45;19.00;99.90
30893;DHT22;17595;50.884;4.346;2022-09-09T06:26:19;19.10;99.90
30893;DHT22;17595;50.884;4.346;2022-09-09T06:28:46;19.10;99.90
30893;DHT22;17595;50.884;4.346;2022-09-09T06:31:14;18.40;99.90
30893;DHT22;17595;50.884;4.346;2022-09-09T06:33:42;18.30;99.90
30893;DHT22;17595;50.884;4.346;2022-09-09T06:36:20;18.40;99.90
30893;DHT22;17595;50.884;4.346;2022-09-09T06:38:47;18.50;99.90
30893;DHT22;17595;50.884;4.346;2022-09-09T06:41:14;18.50;99.90
30893;DHT22;17595;50.884;4.346;2022-09-09T06:43:40;18.50;99.90
30893;DHT22;17595;50.884;4.346;2022-09-09T06:46:26;18.70;99.90
30893;DHT22;17595;50.884;4.346;2022-09-09T06:48:56;18.80;99.90
30893;DHT22;17595;50.884;4.346;2022-09-09T06:51:29;18.90;99.90
30893;DHT22;17595;50.884;4.346;2022-09-09T06:53:57;18.80;99.90
30893;DHT22;17595;50.884;4.346;2022-09-09T06:56:25;18.80;99.90
30893;DHT22;17595;50.884;4.346;2022-09-09T06:58:54;18.90;99.90
30893;DHT22;17595;50.884;4.346;2022-09-09T07:01:25;19.10;99.90
30893;DHT22;17595;50.884;4.346;2022-09-09T07:03:53;19.10;99.90
30893;DHT22;17595;50.884;4.346;2022-09-09T07:06:27;19.30;99.90
30893;DHT22;17595;50.884;4.346;2022-09-09T07:08:55;19.40;99.90
30893;DHT22;17595;50.884;4.346;2022-09-09T07:11:23;19.40;99.90
30893;DHT22;17595;50.884;4.346;2022-09-09T07:13:49;19.50;99.90
30893;DHT22;17595;50.884;4.346;2022-09-09T07:16:17;19.50;99.90
30893;DHT22;17595;50.884;4.346;2022-09-09T07:18:43;19.40;99.90
30893;DHT22;17595;50.884;4.346;2022-09-09T07:21:11;19.40;99.90
30893;DHT22;17595;50.884;4.346;2022-09-09T07:23:38;19.40;99.90
30893;DHT22;17595;50.884;4.346;2022-09-09T07:26:12;19.40;99.90
30893;DHT22;17595;50.884;4.346;2022-09-09T07:28:39;19.60;99.90
30893;DHT22;17595;50.884;4.346;2022-09-09T07:31:05;19.70;99.90
30893;DHT22;17595;50.884;4.346;2022-09-09T07:33:33;19.80;99.90
30893;DHT22;17595;50.884;4.346;2022-09-09T07:36:08;19.90;99.90
30893;DHT22;17595;50.884;4.346;2022-09-09T07:38:40;20.00;99.90
30893;DHT22;17595;50.884;4.346;2022-09-09T07:41:08;20.00;99.90
30893;DHT22;17595;50.884;4.346;2022-09-09T07:43:41;19.90;99.90
30893;DHT22;17595;50.884;4.346;2022-09-09T07:46:08;20.10;99.90
30893;DHT22;17595;50.884;4.346;2022-09-09T07:48:34;20.20;99.90
30893;DHT22;17595;50.884;4.346;2022-09-09T07:51:14;20.20;99.90
30893;DHT22;17595;50.884;4.346;2022-09-09T07:53:44;20.40;99.90
30893;DHT22;17595;50.884;4.346;2022-09-09T07:56:13;20.30;99.90
30893;DHT22;17595;50.884;4.346;2022-09-09T07:58:40;20.30;99.90
30893;DHT22;17595;50.884;4.346;2022-09-09T08:01:08;20.50;99.90
30893;DHT22;17595;50.884;4.346;2022-09-09T08:03:34;20.50;99.90
30893;DHT22;17595;50.884;4.346;2022-09-09T08:06:01;20.50;99.90
30893;DHT22;17595;50.884;4.346;2022-09-09T08:08:28;20.70;99.90
30893;DHT22;17595;50.884;4.346;2022-09-09T08:10:54;20.90;99.90
30893;DHT22;17595;50.884;4.346;2022-09-09T08:13:26;21.10;99.90
30893;DHT22;17595;50.884;4.346;2022-09-09T08:15:52;20.80;99.90
30893;DHT22;17595;50.884;4.346;2022-09-09T08:18:18;20.60;99.90
30893;DHT22;17595;50.884;4.346;2022-09-09T08:20:43;20.70;99.90
30893;DHT22;17595;50.884;4.346;2022-09-09T08:23:09;20.80;99.90
30893;DHT22;17595;50.884;4.346;2022-09-09T08:25:34;21.00;99.90
30893;DHT22;17595;50.884;4.346;2022-09-09T08:28:00;20.90;99.90
30893;DHT22;17595;50.884;4.346;2022-09-09T08:30:25;20.80;99.90
30893;DHT22;17595;50.884;4.346;2022-09-09T08:32:52;20.80;99.90
30893;DHT22;17595;50.884;4.346;2022-09-09T08:35:17;20.70;99.90
30893;DHT22;17595;50.884;4.346;2022-09-09T08:37:43;20.50;99.90
30893;DHT22;17595;50.884;4.346;2022-09-09T08:40:17;20.50;99.90
30893;DHT22;17595;50.884;4.346;2022-09-09T08:42:50;20.20;99.90
30893;DHT22;17595;50.884;4.346;2022-09-09T08:45:30;20.00;99.90
30893;DHT22;17595;50.884;4.346;2022-09-09T08:50:42;19.90;99.90
30893;DHT22;17595;50.884;4.346;2022-09-09T08:53:16;20.10;99.90
30893;DHT22;17595;50.884;4.346;2022-09-09T08:55:50;20.30;99.90
30893;DHT22;17595;50.884;4.346;2022-09-09T08:58:17;20.10;99.90
30893;DHT22;17595;50.884;4.346;2022-09-09T09:09:10;20.40;99.90
30893;DHT22;17595;50.884;4.346;2022-09-09T09:11:57;20.30;99.90
30893;DHT22;17595;50.884;4.346;2022-09-09T09:14:30;19.90;99.90
30893;DHT22;17595;50.884;4.346;2022-09-09T09:17:31;20.00;99.90
30893;DHT22;17595;50.884;4.346;2022-09-09T09:19:58;20.20;99.90
30893;DHT22;17595;50.884;4.346;2022-09-09T09:22:48;20.20;99.90
30893;DHT22;17595;50.884;4.346;2022-09-09T09:25:25;20.30;99.90
30893;DHT22;17595;50.884;4.346;2022-09-09T09:30:54;20.00;99.90
30893;DHT22;17595;50.884;4.346;2022-09-09T09:33:51;20.10;99.90
30893;DHT22;17595;50.884;4.346;2022-09-09T09:36:32;20.10;99.90
30893;DHT22;17595;50.884;4.346;2022-09-09T09:39:00;20.10;99.90
30893;DHT22;17595;50.884;4.346;2022-09-09T09:43:59;20.50;99.90
30893;DHT22;17595;50.884;4.346;2022-09-09T09:46:27;20.50;99.90
30893;DHT22;17595;50.884;4.346;2022-09-09T09:48:57;20.30;99.90
30893;DHT22;17595;50.884;4.346;2022-09-09T09:51:24;20.50;99.90
30893;DHT22;17595;50.884;4.346;2022-09-09T09:53:50;20.40;99.90
30893;DHT22;17595;50.884;4.346;2022-09-09T09:56:27;20.60;99.90
30893;DHT22;17595;50.884;4.346;2022-09-09T09:58:54;20.60;99.90
30893;DHT22;17595;50.884;4.346;2022-09-09T10:01:21;20.70;99.90
30893;DHT22;17595;50.884;4.346;2022-09-09T10:03:55;20.60;99.90
30893;DHT22;17595;50.884;4.346;2022-09-09T10:06:36;20.50;99.90
30893;DHT22;17595;50.884;4.346;2022-09-09T10:09:26;20.40;99.90
30893;DHT22;17595;50.884;4.346;2022-09-09T10:12:39;20.30;99.90
30893;DHT22;17595;50.884;4.346;2022-09-09T10:20:23;20.60;99.90
30893;DHT22;17595;50.884;4.346;2022-09-09T10:22:49;20.80;99.90
30893;DHT22;17595;50.884;4.346;2022-09-09T10:25:43;20.70;99.90
30893;DHT22;17595;50.884;4.346;2022-09-09T10:36:24;21.50;99.90
30893;DHT22;17595;50.884;4.346;2022-09-09T10:53:18;22.20;99.90
30893;DHT22;17595;50.884;4.346;2022-09-09T10:56:09;22.30;99.90
30893;DHT22;17595;50.884;4.346;2022-09-09T10:59:05;22.30;99.90
30893;DHT22;17595;50.884;4.346;2022-09-09T11:04:42;22.00;99.90
30893;DHT22;17595;50.884;4.346;2022-09-09T11:07:16;22.20;99.90
30893;DHT22;17595;50.884;4.346;2022-09-09T11:09:49;22.40;99.90
30893;DHT22;17595;50.884;4.346;2022-09-09T11:12:19;22.30;99.90
30893;DHT22;17595;50.884;4.346;2022-09-09T11:14:50;22.10;99.90
30893;DHT22;17595;50.884;4.346;2022-09-09T11:17:22;22.00;99.90
30893;DHT22;17595;50.884;4.346;2022-09-09T11:19:49;22.10;99.90
30893;DHT22;17595;50.884;4.346;2022-09-09T11:22:36;22.10;99.90
30893;DHT22;17595;50.884;4.346;2022-09-09T11:25:08;21.70;99.90
30893;DHT22;17595;50.884;4.346;2022-09-09T11:28:08;21.90;99.90
30893;DHT22;17595;50.884;4.346;2022-09-09T11:38:45;21.90;99.90
30893;DHT22;17595;50.884;4.346;2022-09-09T11:41:12;22.00;99.90
30893;DHT22;17595;50.884;4.346;2022-09-09T11:43:45;21.90;99.90
30893;DHT22;17595;50.884;4.346;2022-09-09T11:46:15;22.10;99.90
30893;DHT22;17595;50.884;4.346;2022-09-09T11:48:43;21.90;99.90
30893;DHT22;17595;50.884;4.346;2022-09-09T11:54:44;21.90;99.90
30893;DHT22;17595;50.884;4.346;2022-09-09T11:56:46;21.90;99.90
30893;DHT22;17595;50.884;4.346;2022-09-09T11:59:24;21.80;99.90
30893;DHT22;17595;50.884;4.346;2022-09-09T12:02:00;21.90;99.90
30893;DHT22;17595;50.884;4.346;2022-09-09T12:04:39;22.00;99.90
30893;DHT22;17595;50.884;4.346;2022-09-09T12:12:50;22.10;99.90
30893;DHT22;17595;50.884;4.346;2022-09-09T12:15:19;21.80;99.90
30893;DHT22;17595;50.884;4.346;2022-09-09T12:17:51;21.90;99.90
30893;DHT22;17595;50.884;4.346;2022-09-09T12:20:34;21.90;99.90
30893;DHT22;17595;50.884;4.346;2022-09-09T12:25:54;21.80;99.90
30893;DHT22;17595;50.884;4.346;2022-09-09T12:28:39;21.70;99.90
30893;DHT22;17595;50.884;4.346;2022-09-09T12:31:11;21.80;99.90
30893;DHT22;17595;50.884;4.346;2022-09-09T12:33:43;21.90;99.90
30893;DHT22;17595;50.884;4.346;2022-09-09T12:36:16;22.00;99.90
30893;DHT22;17595;50.884;4.346;2022-09-09T12:38:44;22.00;99.90
30893;DHT22;17595;50.884;4.346;2022-09-09T12:43:45;21.60;99.90
30893;DHT22;17595;50.884;4.346;2022-09-09T12:46:22;21.60;99.90
30893;DHT22;17595;50.884;4.346;2022-09-09T12:48:48;21.60;99.90
30893;DHT22;17595;50.884;4.346;2022-09-09T12:51:23;21.00;99.90
30893;DHT22;17595;50.884;4.346;2022-09-09T12:53:51;21.10;99.90
30893;DHT22;17595;50.884;4.346;2022-09-09T12:56:22;21.30;99.90
30893;DHT22;17595;50.884;4.346;2022-09-09T12:58:50;21.50;99.90
30893;DHT22;17595;50.884;4.346;2022-09-09T13:01:32;21.70;99.90
30893;DHT22;17595;50.884;4.346;2022-09-09T13:04:01;21.60;99.90
30893;DHT22;17595;50.884;4.346;2022-09-09T13:06:31;21.50;99.90
30893;DHT22;17595;50.884;4.346;2022-09-09T13:08:59;21.70;99.90
30893;DHT22;17595;50.884;4.346;2022-09-09T13:13:56;21.90;99.90
30893;DHT22;17595;50.884;4.346;2022-09-09T13:16:29;22.20;99.90
30893;DHT22;17595;50.884;4.346;2022-09-09T13:19:00;22.20;99.90
30893;DHT22;17595;50.884;4.346;2022-09-09T13:21:37;22.10;99.90
30893;DHT22;17595;50.884;4.346;2022-09-09T13:26:59;22.30;99.90
30893;DHT22;17595;50.884;4.346;2022-09-09T13:29:28;22.30;99.90
30893;DHT22;17595;50.884;4.346;2022-09-09T13:31:54;22.50;99.90
30893;DHT22;17595;50.884;4.346;2022-09-09T13:34:30;22.60;99.90
30893;DHT22;17595;50.884;4.346;2022-09-09T13:37:00;22.70;99.90
30893;DHT22;17595;50.884;4.346;2022-09-09T13:39:32;22.80;99.90
30893;DHT22;17595;50.884;4.346;2022-09-09T13:41:58;22.70;99.90
30893;DHT22;17595;50.884;4.346;2022-09-09T13:44:36;22.70;99.90
30893;DHT22;17595;50.884;4.346;2022-09-09T13:49:29;22.60;99.90
30893;DHT22;17595;50.884;4.346;2022-09-09T13:52:04;22.50;99.90
30893;DHT22;17595;50.884;4.346;2022-09-09T13:54:33;22.80;99.90
30893;DHT22;17595;50.884;4.346;2022-09-09T13:56:58;22.90;99.90
30893;DHT22;17595;50.884;4.346;2022-09-09T13:59:24;22.70;99.90
30893;DHT22;17595;50.884;4.346;2022-09-09T14:01:51;22.40;99.90
30893;DHT22;17595;50.884;4.346;2022-09-09T14:04:18;22.70;99.90
30893;DHT22;17595;50.884;4.346;2022-09-09T14:06:46;22.80;99.90
30893;DHT22;17595;50.884;4.346;2022-09-09T14:09:13;23.00;99.90
30893;DHT22;17595;50.884;4.346;2022-09-09T14:11:40;23.10;99.90
30893;DHT22;17595;50.884;4.346;2022-09-09T14:14:05;22.90;99.90
30893;DHT22;17595;50.884;4.346;2022-09-09T14:16:32;22.50;99.90
30893;DHT22;17595;50.884;4.346;2022-09-09T14:18:58;22.40;99.90
30893;DHT22;17595;50.884;4.346;2022-09-09T14:21:25;22.60;99.90
30893;DHT22;17595;50.884;4.346;2022-09-09T14:23:51;22.50;99.90
30893;DHT22;17595;50.884;4.346;2022-09-09T14:26:18;22.40;99.90
30893;DHT22;17595;50.884;4.346;2022-09-09T14:28:46;22.70;99.90
30893;DHT22;17595;50.884;4.346;2022-09-09T14:31:12;22.50;99.90
30893;DHT22;17595;50.884;4.346;2022-09-09T14:33:39;22.30;99.90
30893;DHT22;17595;50.884;4.346;2022-09-09T14:36:05;22.30;99.90
30893;DHT22;17595;50.884;4.346;2022-09-09T14:38:35;22.40;99.90
30893;DHT22;17595;50.884;4.346;2022-09-09T14:41:05;22.70;99.90
30893;DHT22;17595;50.884;4.346;2022-09-09T14:43:31;22.70;99.90
30893;DHT22;17595;50.884;4.346;2022-09-09T14:46:07;22.70;99.90
30893;DHT22;17595;50.884;4.346;2022-09-09T14:48:34;22.80;99.90
30893;DHT22;17595;50.884;4.346;2022-09-09T14:51:26;23.00;99.90
30893;DHT22;17595;50.884;4.346;2022-09-09T14:53:56;22.90;99.90
30893;DHT22;17595;50.884;4.346;2022-09-09T14:56:25;23.00;99.90
30893;DHT22;17595;50.884;4.346;2022-09-09T14:58:54;23.10;99.90
30893;DHT22;17595;50.884;4.346;2022-09-09T15:01:20;23.00;99.90
30893;DHT22;17595;50.884;4.346;2022-09-09T15:03:52;23.10;99.90
30893;DHT22;17595;50.884;4.346;2022-09-09T15:06:19;23.10;99.90
30893;DHT22;17595;50.884;4.346;2022-09-09T15:08:46;23.20;99.90
30893;DHT22;17595;50.884;4.346;2022-09-09T15:11:13;23.30;99.90
30893;DHT22;17595;50.884;4.346;2022-09-09T15:13:41;22.90;99.90
30893;DHT22;17595;50.884;4.346;2022-09-09T15:16:09;23.10;99.90
30893;DHT22;17595;50.884;4.346;2022-09-09T15:18:35;23.00;99.90
30893;DHT22;17595;50.884;4.346;2022-09-09T15:21:17;23.10;99.90
30893;DHT22;17595;50.884;4.346;2022-09-09T15:23:44;23.10;99.90
30893;DHT22;17595;50.884;4.346;2022-09-09T15:26:11;23.00;99.90
30893;DHT22;17595;50.884;4.346;2022-09-09T15:28:38;22.70;99.90
30893;DHT22;17595;50.884;4.346;2022-09-09T15:31:09;22.70;99.90
30893;DHT22;17595;50.884;4.346;2022-09-09T15:33:36;22.60;99.90
30893;DHT22;17595;50.884;4.346;2022-09-09T15:36:24;22.20;99.90
30893;DHT22;17595;50.884;4.346;2022-09-09T15:38:50;22.30;99.90
30893;DHT22;17595;50.884;4.346;2022-09-09T15:41:17;22.10;99.90
30893;DHT22;17595;50.884;4.346;2022-09-09T15:43:45;22.10;99.90
30893;DHT22;17595;50.884;4.346;2022-09-09T15:48:44;22.30;99.90
30893;DHT22;17595;50.884;4.346;2022-09-09T15:51:10;22.50;99.90
30893;DHT22;17595;50.884;4.346;2022-09-09T15:53:39;22.50;99.90
30893;DHT22;17595;50.884;4.346;2022-09-09T15:56:05;22.50;99.90
30893;DHT22;17595;50.884;4.346;2022-09-09T15:58:35;22.30;99.90
30893;DHT22;17595;50.884;4.346;2022-09-09T16:01:09;22.50;99.90
30893;DHT22;17595;50.884;4.346;2022-09-09T16:03:37;22.60;99.90
30893;DHT22;17595;50.884;4.346;2022-09-09T16:06:04;22.60;99.90
30893;DHT22;17595;50.884;4.346;2022-09-09T16:08:41;22.50;99.90
30893;DHT22;17595;50.884;4.346;2022-09-09T16:11:07;22.30;99.90
30893;DHT22;17595;50.884;4.346;2022-09-09T16:13:38;22.40;99.90
30893;DHT22;17595;50.884;4.346;2022-09-09T16:16:05;22.10;99.90
30893;DHT22;17595;50.884;4.346;2022-09-09T16:18:40;22.10;99.90
30893;DHT22;17595;50.884;4.346;2022-09-09T16:21:06;22.00;99.90
30893;DHT22;17595;50.884;4.346;2022-09-09T16:23:34;21.70;99.90
30893;DHT22;17595;50.884;4.346;2022-09-09T16:26:01;21.60;99.90
30893;DHT22;17595;50.884;4.346;2022-09-09T16:28:27;21.20;99.90
30893;DHT22;17595;50.884;4.346;2022-09-09T16:30:53;21.00;99.90
30893;DHT22;17595;50.884;4.346;2022-09-09T16:33:18;21.10;99.90
30893;DHT22;17595;50.884;4.346;2022-09-09T16:35:44;21.30;99.90
30893;DHT22;17595;50.884;4.346;2022-09-09T16:38:10;21.20;99.90
30893;DHT22;17595;50.884;4.346;2022-09-09T16:40:37;21.40;99.90
30893;DHT22;17595;50.884;4.346;2022-09-09T16:43:04;21.50;99.90
30893;DHT22;17595;50.884;4.346;2022-09-09T16:45:30;21.20;99.90
30893;DHT22;17595;50.884;4.346;2022-09-09T16:47:58;21.10;99.90
30893;DHT22;17595;50.884;4.346;2022-09-09T16:50:26;21.20;99.90
30893;DHT22;17595;50.884;4.346;2022-09-09T16:52:52;21.10;99.90
30893;DHT22;17595;50.884;4.346;2022-09-09T16:55:18;20.90;99.90
30893;DHT22;17595;50.884;4.346;2022-09-09T16:57:46;21.00;99.90
30893;DHT22;17595;50.884;4.346;2022-09-09T17:00:14;21.00;99.90
30893;DHT22;17595;50.884;4.346;2022-09-09T17:02:42;21.20;99.90
30893;DHT22;17595;50.884;4.346;2022-09-09T17:05:08;21.30;99.90
30893;DHT22;17595;50.884;4.346;2022-09-09T17:07:34;21.10;99.90
30893;DHT22;17595;50.884;4.346;2022-09-09T17:10:01;21.30;99.90
30893;DHT22;17595;50.884;4.346;2022-09-09T17:12:27;21.50;99.90
30893;DHT22;17595;50.884;4.346;2022-09-09T17:14:52;21.50;99.90
30893;DHT22;17595;50.884;4.346;2022-09-09T17:17:18;21.60;99.90
30893;DHT22;17595;50.884;4.346;2022-09-09T17:19:43;21.60;99.90
30893;DHT22;17595;50.884;4.346;2022-09-09T17:22:09;21.60;99.90
30893;DHT22;17595;50.884;4.346;2022-09-09T17:24:35;21.60;99.90
30893;DHT22;17595;50.884;4.346;2022-09-09T17:27:03;21.70;99.90
30893;DHT22;17595;50.884;4.346;2022-09-09T17:29:29;21.60;99.90
30893;DHT22;17595;50.884;4.346;2022-09-09T17:31:54;21.70;99.90
30893;DHT22;17595;50.884;4.346;2022-09-09T17:34:20;21.70;99.90
30893;DHT22;17595;50.884;4.346;2022-09-09T17:36:46;21.70;99.90
30893;DHT22;17595;50.884;4.346;2022-09-09T17:39:12;21.60;99.90
30893;DHT22;17595;50.884;4.346;2022-09-09T17:41:39;21.50;99.90
30893;DHT22;17595;50.884;4.346;2022-09-09T17:44:06;21.50;99.90
30893;DHT22;17595;50.884;4.346;2022-09-09T17:46:36;21.20;99.90
30893;DHT22;17595;50.884;4.346;2022-09-09T17:49:04;21.10;99.90
30893;DHT22;17595;50.884;4.346;2022-09-09T17:51:32;20.90;99.90
30893;DHT22;17595;50.884;4.346;2022-09-09T17:54:01;21.00;99.90